sensor_id;sensor_type;location;lat;lon;timestamp;P1;durP1;ratioP1;P2;durP2;ratioP2
66118;SDS011;52912;48.564;9.302;2023-04-24T00:00:37;1.13;;;0.70;;
66118;SDS011;52912;48.564;9.302;2023-04-24T00:03:02;5.75;;;0.90;;
66118;SDS011;52912;48.564;9.302;2023-04-24T00:05:29;1.95;;;0.88;;
66118;SDS011;52912;48.564;9.302;2023-04-24T00:07:54;0.80;;;0.60;;
66118;SDS011;52912;48.564;9.302;2023-04-24T00:10:20;2.42;;;0.80;;
66118;SDS011;52912;48.564;9.302;2023-04-24T00:12:45;0.68;;;0.60;;
66118;SDS011;52912;48.564;9.302;2023-04-24T00:15:11;1.33;;;0.50;;
66118;SDS011;52912;48.564;9.302;2023-04-24T00:17:36;1.67;;;0.80;;
66118;SDS011;52912;48.564;9.302;2023-04-24T00:20:02;1.60;;;0.70;;
66118;SDS011;52912;48.564;9.302;2023-04-24T00:22:30;0.77;;;0.65;;
66118;SDS011;52912;48.564;9.302;2023-04-24T00:24:55;1.08;;;0.70;;
66118;SDS011;52912;48.564;9.302;2023-04-24T00:27:21;0.98;;;0.80;;
66118;SDS011;52912;48.564;9.302;2023-04-24T00:29:47;1.95;;;0.80;;
66118;SDS011;52912;48.564;9.302;2023-04-24T00:32:12;2.65;;;0.85;;
66118;SDS011;52912;48.564;9.302;2023-04-24T00:34:38;2.78;;;1.13;;
66118;SDS011;52912;48.564;9.302;2023-04-24T00:37:03;4.10;;;0.80;;
66118;SDS011;52912;48.564;9.302;2023-04-24T00:39:30;2.78;;;1.05;;
66118;SDS011;52912;48.564;9.302;2023-04-24T00:41:56;2.75;;;0.88;;
66118;SDS011;52912;48.564;9.302;2023-04-24T00:44:21;2.58;;;0.63;;
66118;SDS011;52912;48.564;9.302;2023-04-24T00:46:47;2.50;;;0.88;;
66118;SDS011;52912;48.564;9.302;2023-04-24T00:49:14;0.70;;;0.70;;
66118;SDS011;52912;48.564;9.302;2023-04-24T00:51:39;0.50;;;0.50;;
66118;SDS011;52912;48.564;9.302;2023-04-24T00:54:05;1.95;;;0.70;;
66118;SDS011;52912;48.564;9.302;2023-04-24T00:56:32;4.95;;;0.85;;
66118;SDS011;52912;48.564;9.302;2023-04-24T00:58:57;3.15;;;1.02;;
66118;SDS011;52912;48.564;9.302;2023-04-24T01:01:24;2.15;;;0.88;;
66118;SDS011;52912;48.564;9.302;2023-04-24T01:03:51;3.35;;;0.70;;
66118;SDS011;52912;48.564;9.302;2023-04-24T01:06:18;3.63;;;0.77;;
66118;SDS011;52912;48.564;9.302;2023-04-24T01:08:44;1.63;;;0.90;;
66118;SDS011;52912;48.564;9.302;2023-04-24T01:11:11;2.05;;;0.90;;
66118;SDS011;52912;48.564;9.302;2023-04-24T01:13:38;4.55;;;1.00;;
66118;SDS011;52912;48.564;9.302;2023-04-24T01:16:04;2.88;;;0.90;;
66118;SDS011;52912;48.564;9.302;2023-04-24T01:18:31;1.40;;;0.80;;
66118;SDS011;52912;48.564;9.302;2023-04-24T01:20:57;8.57;;;1.05;;
66118;SDS011;52912;48.564;9.302;2023-04-24T01:23:25;2.97;;;0.90;;
66118;SDS011;52912;48.564;9.302;2023-04-24T01:25:51;1.65;;;0.95;;
66118;SDS011;52912;48.564;9.302;2023-04-24T01:28:17;2.97;;;0.90;;
66118;SDS011;52912;48.564;9.302;2023-04-24T01:30:43;1.15;;;0.80;;
66118;SDS011;52912;48.564;9.302;2023-04-24T01:33:09;1.48;;;0.90;;
66118;SDS011;52912;48.564;9.302;2023-04-24T01:35:34;3.22;;;0.90;;
66118;SDS011;52912;48.564;9.302;2023-04-24T01:38:00;1.15;;;0.93;;
66118;SDS011;52912;48.564;9.302;2023-04-24T01:40:27;2.20;;;0.90;;
66118;SDS011;52912;48.564;9.302;2023-04-24T01:42:52;5.55;;;1.20;;
66118;SDS011;52912;48.564;9.302;2023-04-24T01:45:18;2.97;;;0.82;;
66118;SDS011;52912;48.564;9.302;2023-04-24T01:47:44;1.55;;;0.90;;
66118;SDS011;52912;48.564;9.302;2023-04-24T01:50:10;3.53;;;1.20;;
66118;SDS011;52912;48.564;9.302;2023-04-24T01:52:35;1.13;;;0.90;;
66118;SDS011;52912;48.564;9.302;2023-04-24T01:55:01;3.55;;;1.30;;
66118;SDS011;52912;48.564;9.302;2023-04-24T01:57:28;2.70;;;1.10;;
66118;SDS011;52912;48.564;9.302;2023-04-24T01:59:54;2.92;;;1.25;;
66118;SDS011;52912;48.564;9.302;2023-04-24T02:02:19;2.13;;;1.02;;
66118;SDS011;52912;48.564;9.302;2023-04-24T02:04:44;4.35;;;0.90;;
66118;SDS011;52912;48.564;9.302;2023-04-24T02:07:10;1.30;;;0.90;;
66118;SDS011;52912;48.564;9.302;2023-04-24T02:09:35;2.08;;;0.85;;
66118;SDS011;52912;48.564;9.302;2023-04-24T02:12:01;1.98;;;0.90;;
66118;SDS011;52912;48.564;9.302;2023-04-24T02:14:28;1.60;;;0.90;;
66118;SDS011;52912;48.564;9.302;2023-04-24T02:16:53;2.13;;;1.00;;
66118;SDS011;52912;48.564;9.302;2023-04-24T02:19:19;1.35;;;0.88;;
66118;SDS011;52912;48.564;9.302;2023-04-24T02:21:44;3.60;;;0.77;;
66118;SDS011;52912;48.564;9.302;2023-04-24T02:24:09;1.80;;;0.80;;
66118;SDS011;52912;48.564;9.302;2023-04-24T02:26:35;0.70;;;0.70;;
66118;SDS011;52912;48.564;9.302;2023-04-24T02:29:00;2.60;;;1.00;;
66118;SDS011;52912;48.564;9.302;2023-04-24T02:31:27;3.85;;;1.10;;
66118;SDS011;52912;48.564;9.302;2023-04-24T02:33:53;1.25;;;0.70;;
66118;SDS011;52912;48.564;9.302;2023-04-24T02:36:18;1.05;;;0.95;;
66118;SDS011;52912;48.564;9.302;2023-04-24T02:38:44;1.85;;;0.80;;
66118;SDS011;52912;48.564;9.302;2023-04-24T02:41:09;2.25;;;0.90;;
66118;SDS011;52912;48.564;9.302;2023-04-24T02:43:34;0.90;;;0.73;;
66118;SDS011;52912;48.564;9.302;2023-04-24T02:46:00;1.17;;;0.82;;
66118;SDS011;52912;48.564;9.302;2023-04-24T02:48:27;2.35;;;0.82;;
66118;SDS011;52912;48.564;9.302;2023-04-24T02:50:52;2.53;;;0.70;;
66118;SDS011;52912;48.564;9.302;2023-04-24T02:53:18;1.50;;;0.80;;
66118;SDS011;52912;48.564;9.302;2023-04-24T02:55:43;0.63;;;0.60;;
66118;SDS011;52912;48.564;9.302;2023-04-24T02:58:08;0.80;;;0.68;;
66118;SDS011;52912;48.564;9.302;2023-04-24T03:00:34;3.10;;;0.98;;
66118;SDS011;52912;48.564;9.302;2023-04-24T03:02:59;0.65;;;0.60;;
66118;SDS011;52912;48.564;9.302;2023-04-24T03:05:26;1.10;;;0.82;;
66118;SDS011;52912;48.564;9.302;2023-04-24T03:07:52;0.68;;;0.60;;
66118;SDS011;52912;48.564;9.302;2023-04-24T03:10:17;2.83;;;0.70;;
66118;SDS011;52912;48.564;9.302;2023-04-24T03:12:43;0.98;;;0.85;;
66118;SDS011;52912;48.564;9.302;2023-04-24T03:15:08;2.55;;;0.75;;
66118;SDS011;52912;48.564;9.302;2023-04-24T03:17:34;1.25;;;0.80;;
66118;SDS011;52912;48.564;9.302;2023-04-24T03:20:00;2.42;;;1.20;;
66118;SDS011;52912;48.564;9.302;2023-04-24T03:22:27;0.90;;;0.90;;
66118;SDS011;52912;48.564;9.302;2023-04-24T03:24:52;3.40;;;1.13;;
66118;SDS011;52912;48.564;9.302;2023-04-24T03:27:17;3.58;;;1.48;;
66118;SDS011;52912;48.564;9.302;2023-04-24T03:29:43;3.80;;;1.20;;
66118;SDS011;52912;48.564;9.302;2023-04-24T03:32:08;3.78;;;1.10;;
66118;SDS011;52912;48.564;9.302;2023-04-24T03:34:34;2.67;;;1.15;;
66118;SDS011;52912;48.564;9.302;2023-04-24T03:36:59;1.23;;;0.90;;
66118;SDS011;52912;48.564;9.302;2023-04-24T03:39:26;2.75;;;1.15;;
66118;SDS011;52912;48.564;9.302;2023-04-24T03:41:51;2.38;;;1.15;;
66118;SDS011;52912;48.564;9.302;2023-04-24T03:44:17;2.13;;;1.40;;
66118;SDS011;52912;48.564;9.302;2023-04-24T03:46:42;1.50;;;0.98;;
66118;SDS011;52912;48.564;9.302;2023-04-24T03:49:08;1.33;;;1.00;;
66118;SDS011;52912;48.564;9.302;2023-04-24T03:51:33;1.63;;;1.02;;
66118;SDS011;52912;48.564;9.302;2023-04-24T03:53:59;1.40;;;1.10;;
66118;SDS011;52912;48.564;9.302;2023-04-24T03:56:25;1.63;;;1.10;;
66118;SDS011;52912;48.564;9.302;2023-04-24T03:58:51;2.67;;;1.25;;
66118;SDS011;52912;48.564;9.302;2023-04-24T04:01:16;2.20;;;1.10;;
66118;SDS011;52912;48.564;9.302;2023-04-24T04:03:42;2.35;;;0.90;;
66118;SDS011;52912;48.564;9.302;2023-04-24T04:06:07;1.20;;;0.85;;
66118;SDS011;52912;48.564;9.302;2023-04-24T04:08:33;1.40;;;0.82;;
66118;SDS011;52912;48.564;9.302;2023-04-24T04:10:58;1.80;;;0.98;;
66118;SDS011;52912;48.564;9.302;2023-04-24T04:13:25;2.60;;;1.00;;
66118;SDS011;52912;48.564;9.302;2023-04-24T04:15:50;2.80;;;0.85;;
66118;SDS011;52912;48.564;9.302;2023-04-24T04:18:16;1.83;;;0.98;;
66118;SDS011;52912;48.564;9.302;2023-04-24T04:20:41;1.08;;;0.73;;
66118;SDS011;52912;48.564;9.302;2023-04-24T04:23:06;1.80;;;0.80;;
66118;SDS011;52912;48.564;9.302;2023-04-24T04:25:32;1.42;;;1.00;;
66118;SDS011;52912;48.564;9.302;2023-04-24T04:27:57;0.90;;;0.70;;
66118;SDS011;52912;48.564;9.302;2023-04-24T04:30:24;3.20;;;1.10;;
66118;SDS011;52912;48.564;9.302;2023-04-24T04:32:50;6.45;;;3.65;;
66118;SDS011;52912;48.564;9.302;2023-04-24T04:35:15;2.33;;;1.70;;
66118;SDS011;52912;48.564;9.302;2023-04-24T04:37:41;3.28;;;1.50;;
66118;SDS011;52912;48.564;9.302;2023-04-24T04:40:07;2.00;;;1.08;;
66118;SDS011;52912;48.564;9.302;2023-04-24T04:42:33;3.15;;;1.20;;
66118;SDS011;52912;48.564;9.302;2023-04-24T04:44:58;2.63;;;1.00;;
66118;SDS011;52912;48.564;9.302;2023-04-24T04:47:25;0.98;;;0.90;;
66118;SDS011;52912;48.564;9.302;2023-04-24T04:49:51;1.55;;;1.00;;
66118;SDS011;52912;48.564;9.302;2023-04-24T04:52:17;2.65;;;1.20;;
66118;SDS011;52912;48.564;9.302;2023-04-24T04:54:42;2.58;;;1.48;;
66118;SDS011;52912;48.564;9.302;2023-04-24T04:57:08;3.60;;;1.40;;
66118;SDS011;52912;48.564;9.302;2023-04-24T04:59:33;11.00;;;1.90;;
66118;SDS011;52912;48.564;9.302;2023-04-24T05:01:59;2.40;;;1.40;;
66118;SDS011;52912;48.564;9.302;2023-04-24T05:04:26;3.15;;;1.40;;
66118;SDS011;52912;48.564;9.302;2023-04-24T05:06:51;6.18;;;1.27;;
66118;SDS011;52912;48.564;9.302;2023-04-24T05:09:17;1.73;;;1.02;;
66118;SDS011;52912;48.564;9.302;2023-04-24T05:11:42;1.15;;;1.00;;
66118;SDS011;52912;48.564;9.302;2023-04-24T05:14:08;1.52;;;1.20;;
66118;SDS011;52912;48.564;9.302;2023-04-24T05:16:33;2.95;;;1.27;;
66118;SDS011;52912;48.564;9.302;2023-04-24T05:18:59;2.97;;;1.15;;
66118;SDS011;52912;48.564;9.302;2023-04-24T05:21:25;2.22;;;1.17;;
66118;SDS011;52912;48.564;9.302;2023-04-24T05:23:51;1.33;;;0.98;;
66118;SDS011;52912;48.564;9.302;2023-04-24T05:26:16;0.90;;;0.90;;
66118;SDS011;52912;48.564;9.302;2023-04-24T05:28:42;4.53;;;1.20;;
66118;SDS011;52912;48.564;9.302;2023-04-24T05:31:07;1.80;;;1.20;;
66118;SDS011;52912;48.564;9.302;2023-04-24T05:33:33;2.88;;;1.20;;
66118;SDS011;52912;48.564;9.302;2023-04-24T05:35:58;1.40;;;1.00;;
66118;SDS011;52912;48.564;9.302;2023-04-24T05:38:25;2.55;;;1.40;;
66118;SDS011;52912;48.564;9.302;2023-04-24T05:40:50;2.15;;;1.30;;
66118;SDS011;52912;48.564;9.302;2023-04-24T05:43:16;2.75;;;1.30;;
66118;SDS011;52912;48.564;9.302;2023-04-24T05:45:41;2.72;;;1.58;;
66118;SDS011;52912;48.564;9.302;2023-04-24T05:48:07;2.50;;;1.50;;
66118;SDS011;52912;48.564;9.302;2023-04-24T05:50:32;3.65;;;1.35;;
66118;SDS011;52912;48.564;9.302;2023-04-24T05:52:57;4.70;;;1.58;;
66118;SDS011;52912;48.564;9.302;2023-04-24T05:55:24;3.20;;;1.40;;
66118;SDS011;52912;48.564;9.302;2023-04-24T05:57:50;3.30;;;1.52;;
66118;SDS011;52912;48.564;9.302;2023-04-24T06:00:16;2.70;;;1.60;;
66118;SDS011;52912;48.564;9.302;2023-04-24T06:02:41;2.30;;;1.50;;
66118;SDS011;52912;48.564;9.302;2023-04-24T06:05:07;2.88;;;1.60;;
66118;SDS011;52912;48.564;9.302;2023-04-24T06:07:33;1.80;;;1.58;;
66118;SDS011;52912;48.564;9.302;2023-04-24T06:09:58;2.53;;;1.33;;
66118;SDS011;52912;48.564;9.302;2023-04-24T06:12:25;4.78;;;1.70;;
66118;SDS011;52912;48.564;9.302;2023-04-24T06:14:51;1.95;;;1.50;;
66118;SDS011;52912;48.564;9.302;2023-04-24T06:17:16;3.85;;;1.70;;
66118;SDS011;52912;48.564;9.302;2023-04-24T06:19:42;3.60;;;1.83;;
66118;SDS011;52912;48.564;9.302;2023-04-24T06:22:07;2.75;;;1.67;;
66118;SDS011;52912;48.564;9.302;2023-04-24T06:24:33;1.98;;;1.50;;
66118;SDS011;52912;48.564;9.302;2023-04-24T06:26:59;4.20;;;1.60;;
66118;SDS011;52912;48.564;9.302;2023-04-24T06:29:26;2.97;;;1.52;;
66118;SDS011;52912;48.564;9.302;2023-04-24T06:31:51;2.58;;;1.58;;
66118;SDS011;52912;48.564;9.302;2023-04-24T06:34:17;3.05;;;1.77;;
66118;SDS011;52912;48.564;9.302;2023-04-24T06:36:42;2.45;;;1.60;;
66118;SDS011;52912;48.564;9.302;2023-04-24T06:39:08;4.57;;;1.90;;
66118;SDS011;52912;48.564;9.302;2023-04-24T06:41:34;2.35;;;1.60;;
66118;SDS011;52912;48.564;9.302;2023-04-24T06:43:59;4.15;;;1.80;;
66118;SDS011;52912;48.564;9.302;2023-04-24T06:46:26;2.42;;;1.50;;
66118;SDS011;52912;48.564;9.302;2023-04-24T06:48:51;3.28;;;1.45;;
66118;SDS011;52912;48.564;9.302;2023-04-24T06:51:17;3.72;;;1.70;;
66118;SDS011;52912;48.564;9.302;2023-04-24T06:53:42;4.22;;;1.80;;
66118;SDS011;52912;48.564;9.302;2023-04-24T06:56:08;2.00;;;1.63;;
66118;SDS011;52912;48.564;9.302;2023-04-24T06:58:33;1.80;;;1.60;;
66118;SDS011;52912;48.564;9.302;2023-04-24T07:00:59;1.90;;;1.45;;
66118;SDS011;52912;48.564;9.302;2023-04-24T07:03:26;4.10;;;1.67;;
66118;SDS011;52912;48.564;9.302;2023-04-24T07:05:51;2.35;;;1.63;;
66118;SDS011;52912;48.564;9.302;2023-04-24T07:08:16;1.95;;;1.50;;
66118;SDS011;52912;48.564;9.302;2023-04-24T07:10:42;4.72;;;1.50;;
66118;SDS011;52912;48.564;9.302;2023-04-24T07:13:07;2.53;;;1.50;;
66118;SDS011;52912;48.564;9.302;2023-04-24T07:15:33;5.53;;;1.70;;
66118;SDS011;52912;48.564;9.302;2023-04-24T07:17:58;1.92;;;1.70;;
66118;SDS011;52912;48.564;9.302;2023-04-24T07:20:25;3.38;;;1.75;;
66118;SDS011;52912;48.564;9.302;2023-04-24T07:22:51;1.60;;;1.50;;
66118;SDS011;52912;48.564;9.302;2023-04-24T07:25:16;2.38;;;1.60;;
66118;SDS011;52912;48.564;9.302;2023-04-24T07:27:42;4.15;;;1.63;;
66118;SDS011;52912;48.564;9.302;2023-04-24T07:30:08;3.42;;;1.75;;
66118;SDS011;52912;48.564;9.302;2023-04-24T07:32:34;2.22;;;1.50;;
66118;SDS011;52912;48.564;9.302;2023-04-24T07:34:59;2.65;;;1.70;;
66118;SDS011;52912;48.564;9.302;2023-04-24T07:37:26;2.70;;;1.75;;
66118;SDS011;52912;48.564;9.302;2023-04-24T07:39:53;3.43;;;1.70;;
66118;SDS011;52912;48.564;9.302;2023-04-24T07:42:18;3.15;;;1.50;;
66118;SDS011;52912;48.564;9.302;2023-04-24T07:44:44;2.40;;;1.55;;
66118;SDS011;52912;48.564;9.302;2023-04-24T07:47:09;2.10;;;1.70;;
66118;SDS011;52912;48.564;9.302;2023-04-24T07:49:35;2.10;;;1.40;;
66118;SDS011;52912;48.564;9.302;2023-04-24T07:52:01;1.85;;;1.30;;
66118;SDS011;52912;48.564;9.302;2023-04-24T07:54:28;1.33;;;1.10;;
66118;SDS011;52912;48.564;9.302;2023-04-24T07:56:54;3.00;;;1.30;;
66118;SDS011;52912;48.564;9.302;2023-04-24T07:59:21;3.55;;;1.30;;
66118;SDS011;52912;48.564;9.302;2023-04-24T08:01:47;2.42;;;1.60;;
66118;SDS011;52912;48.564;9.302;2023-04-24T08:04:15;2.72;;;1.50;;
66118;SDS011;52912;48.564;9.302;2023-04-24T08:06:42;4.03;;;1.38;;
66118;SDS011;52912;48.564;9.302;2023-04-24T08:09:07;4.40;;;1.20;;
66118;SDS011;52912;48.564;9.302;2023-04-24T08:11:34;2.55;;;1.38;;
66118;SDS011;52912;48.564;9.302;2023-04-24T08:14:00;2.10;;;1.50;;
66118;SDS011;52912;48.564;9.302;2023-04-24T08:16:25;3.63;;;1.27;;
66118;SDS011;52912;48.564;9.302;2023-04-24T08:18:51;3.28;;;1.38;;
66118;SDS011;52912;48.564;9.302;2023-04-24T08:21:18;2.28;;;1.40;;
66118;SDS011;52912;48.564;9.302;2023-04-24T08:23:43;2.03;;;1.45;;
66118;SDS011;52912;48.564;9.302;2023-04-24T08:26:09;2.38;;;1.58;;
66118;SDS011;52912;48.564;9.302;2023-04-24T08:28:36;2.85;;;1.55;;
66118;SDS011;52912;48.564;9.302;2023-04-24T08:31:01;2.75;;;1.30;;
66118;SDS011;52912;48.564;9.302;2023-04-24T08:33:27;2.33;;;1.40;;
66118;SDS011;52912;48.564;9.302;2023-04-24T08:35:52;4.80;;;1.50;;
66118;SDS011;52912;48.564;9.302;2023-04-24T08:38:18;5.93;;;1.65;;
66118;SDS011;52912;48.564;9.302;2023-04-24T08:40:43;1.92;;;1.33;;
66118;SDS011;52912;48.564;9.302;2023-04-24T08:43:09;1.48;;;1.38;;
66118;SDS011;52912;48.564;9.302;2023-04-24T08:45:37;2.22;;;1.38;;
66118;SDS011;52912;48.564;9.302;2023-04-24T08:48:02;2.28;;;1.40;;
66118;SDS011;52912;48.564;9.302;2023-04-24T08:50:29;3.50;;;1.38;;
66118;SDS011;52912;48.564;9.302;2023-04-24T08:52:55;3.63;;;1.42;;
66118;SDS011;52912;48.564;9.302;2023-04-24T08:55:22;3.30;;;1.73;;
66118;SDS011;52912;48.564;9.302;2023-04-24T08:57:50;3.10;;;1.55;;
66118;SDS011;52912;48.564;9.302;2023-04-24T09:00:17;1.40;;;1.30;;
66118;SDS011;52912;48.564;9.302;2023-04-24T09:02:44;6.25;;;1.55;;
66118;SDS011;52912;48.564;9.302;2023-04-24T09:05:12;5.57;;;1.50;;
66118;SDS011;52912;48.564;9.302;2023-04-24T09:07:38;4.57;;;1.55;;
66118;SDS011;52912;48.564;9.302;2023-04-24T09:10:04;3.08;;;1.55;;
66118;SDS011;52912;48.564;9.302;2023-04-24T09:12:32;3.67;;;1.73;;
66118;SDS011;52912;48.564;9.302;2023-04-24T09:14:58;2.42;;;1.33;;
66118;SDS011;52912;48.564;9.302;2023-04-24T09:17:25;5.28;;;1.40;;
66118;SDS011;52912;48.564;9.302;2023-04-24T09:19:52;3.60;;;1.63;;
66118;SDS011;52912;48.564;9.302;2023-04-24T09:22:17;2.83;;;1.45;;
66118;SDS011;52912;48.564;9.302;2023-04-24T09:24:43;2.75;;;1.33;;
66118;SDS011;52912;48.564;9.302;2023-04-24T09:27:10;1.50;;;1.10;;
66118;SDS011;52912;48.564;9.302;2023-04-24T09:29:36;9.55;;;1.27;;
66118;SDS011;52912;48.564;9.302;2023-04-24T09:34:45;3.25;;;1.52;;
66118;SDS011;52912;48.564;9.302;2023-04-24T09:37:13;5.45;;;1.45;;
66118;SDS011;52912;48.564;9.302;2023-04-24T09:40:06;2.75;;;1.38;;
66118;SDS011;52912;48.564;9.302;2023-04-24T09:42:32;4.38;;;1.50;;
66118;SDS011;52912;48.564;9.302;2023-04-24T09:44:58;3.75;;;1.50;;
66118;SDS011;52912;48.564;9.302;2023-04-24T09:47:23;2.13;;;1.23;;
66118;SDS011;52912;48.564;9.302;2023-04-24T09:49:49;5.30;;;1.40;;
66118;SDS011;52912;48.564;9.302;2023-04-24T09:52:16;2.42;;;1.30;;
66118;SDS011;52912;48.564;9.302;2023-04-24T09:54:41;3.10;;;1.50;;
66118;SDS011;52912;48.564;9.302;2023-04-24T09:57:07;2.25;;;1.50;;
66118;SDS011;52912;48.564;9.302;2023-04-24T09:59:32;3.53;;;1.60;;
66118;SDS011;52912;48.564;9.302;2023-04-24T10:01:58;4.03;;;1.60;;
66118;SDS011;52912;48.564;9.302;2023-04-24T10:04:24;5.35;;;1.52;;
66118;SDS011;52912;48.564;9.302;2023-04-24T10:06:51;7.70;;;4.50;;
66118;SDS011;52912;48.564;9.302;2023-04-24T10:09:20;3.08;;;1.70;;
66118;SDS011;52912;48.564;9.302;2023-04-24T10:11:47;2.78;;;1.48;;
66118;SDS011;52912;48.564;9.302;2023-04-24T10:14:17;2.05;;;1.20;;
66118;SDS011;52912;48.564;9.302;2023-04-24T10:16:43;2.25;;;1.48;;
66118;SDS011;52912;48.564;9.302;2023-04-24T10:19:09;2.88;;;1.40;;
66118;SDS011;52912;48.564;9.302;2023-04-24T10:21:35;2.67;;;1.30;;
66118;SDS011;52912;48.564;9.302;2023-04-24T10:24:00;4.05;;;1.45;;
66118;SDS011;52912;48.564;9.302;2023-04-24T10:26:27;2.35;;;1.55;;
66118;SDS011;52912;48.564;9.302;2023-04-24T10:28:53;3.08;;;1.63;;
66118;SDS011;52912;48.564;9.302;2023-04-24T10:31:20;4.43;;;1.55;;
66118;SDS011;52912;48.564;9.302;2023-04-24T10:33:46;3.15;;;1.60;;
66118;SDS011;52912;48.564;9.302;2023-04-24T10:36:12;1.85;;;1.20;;
66118;SDS011;52912;48.564;9.302;2023-04-24T10:38:39;2.20;;;1.40;;
66118;SDS011;52912;48.564;9.302;2023-04-24T10:41:07;2.10;;;1.27;;
66118;SDS011;52912;48.564;9.302;2023-04-24T10:43:35;2.13;;;1.08;;
66118;SDS011;52912;48.564;9.302;2023-04-24T10:46:01;2.88;;;1.27;;
66118;SDS011;52912;48.564;9.302;2023-04-24T10:48:27;2.88;;;1.60;;
66118;SDS011;52912;48.564;9.302;2023-04-24T10:50:53;2.03;;;1.10;;
66118;SDS011;52912;48.564;9.302;2023-04-24T10:53:19;1.70;;;1.30;;
66118;SDS011;52912;48.564;9.302;2023-04-24T10:55:46;1.52;;;1.10;;
66118;SDS011;52912;48.564;9.302;2023-04-24T10:58:14;2.25;;;1.50;;
66118;SDS011;52912;48.564;9.302;2023-04-24T11:00:41;2.90;;;1.90;;
66118;SDS011;52912;48.564;9.302;2023-04-24T11:03:08;4.18;;;2.40;;
66118;SDS011;52912;48.564;9.302;2023-04-24T11:05:49;3.22;;;1.70;;
66118;SDS011;52912;48.564;9.302;2023-04-24T11:08:16;5.03;;;2.00;;
66118;SDS011;52912;48.564;9.302;2023-04-24T11:10:55;3.70;;;2.35;;
66118;SDS011;52912;48.564;9.302;2023-04-24T11:13:23;4.07;;;1.98;;
66118;SDS011;52912;48.564;9.302;2023-04-24T11:18:44;1.38;;;1.27;;
66118;SDS011;52912;48.564;9.302;2023-04-24T11:21:10;3.08;;;1.33;;
66118;SDS011;52912;48.564;9.302;2023-04-24T11:23:36;3.97;;;1.20;;
66118;SDS011;52912;48.564;9.302;2023-04-24T11:26:11;1.35;;;1.20;;
66118;SDS011;52912;48.564;9.302;2023-04-24T11:28:37;4.75;;;1.50;;
66118;SDS011;52912;48.564;9.302;2023-04-24T11:34:05;2.30;;;1.10;;
66118;SDS011;52912;48.564;9.302;2023-04-24T11:36:35;2.75;;;1.00;;
66118;SDS011;52912;48.564;9.302;2023-04-24T11:39:01;1.45;;;1.13;;
66118;SDS011;52912;48.564;9.302;2023-04-24T11:41:27;2.70;;;1.20;;
66118;SDS011;52912;48.564;9.302;2023-04-24T11:43:53;3.67;;;1.20;;
66118;SDS011;52912;48.564;9.302;2023-04-24T11:46:20;3.08;;;1.40;;
66118;SDS011;52912;48.564;9.302;2023-04-24T11:48:47;1.50;;;1.20;;
66118;SDS011;52912;48.564;9.302;2023-04-24T11:51:13;4.03;;;1.30;;
66118;SDS011;52912;48.564;9.302;2023-04-24T11:53:38;2.65;;;1.50;;
66118;SDS011;52912;48.564;9.302;2023-04-24T11:56:04;4.53;;;1.30;;
66118;SDS011;52912;48.564;9.302;2023-04-24T11:58:34;2.28;;;1.23;;
66118;SDS011;52912;48.564;9.302;2023-04-24T12:00:59;2.67;;;1.00;;
66118;SDS011;52912;48.564;9.302;2023-04-24T12:03:25;7.18;;;1.08;;
66118;SDS011;52912;48.564;9.302;2023-04-24T12:05:52;3.38;;;0.88;;
66118;SDS011;52912;48.564;9.302;2023-04-24T12:08:26;2.78;;;1.15;;
66118;SDS011;52912;48.564;9.302;2023-04-24T12:10:52;17.55;;;1.90;;
66118;SDS011;52912;48.564;9.302;2023-04-24T12:13:17;2.97;;;1.05;;
66118;SDS011;52912;48.564;9.302;2023-04-24T12:15:43;1.77;;;1.08;;
66118;SDS011;52912;48.564;9.302;2023-04-24T12:18:11;1.67;;;1.27;;
66118;SDS011;52912;48.564;9.302;2023-04-24T12:20:37;5.05;;;1.25;;
66118;SDS011;52912;48.564;9.302;2023-04-24T12:23:03;6.10;;;1.63;;
66118;SDS011;52912;48.564;9.302;2023-04-24T12:25:29;1.83;;;1.30;;
66118;SDS011;52912;48.564;9.302;2023-04-24T12:28:08;2.67;;;1.40;;
66118;SDS011;52912;48.564;9.302;2023-04-24T12:30:35;2.97;;;1.37;;
66118;SDS011;52912;48.564;9.302;2023-04-24T12:33:09;1.25;;;1.15;;
66118;SDS011;52912;48.564;9.302;2023-04-24T12:35:35;2.35;;;1.05;;
66118;SDS011;52912;48.564;9.302;2023-04-24T12:38:08;4.80;;;1.17;;
66118;SDS011;52912;48.564;9.302;2023-04-24T12:40:35;1.40;;;1.20;;
66118;SDS011;52912;48.564;9.302;2023-04-24T12:43:00;3.13;;;1.42;;
66118;SDS011;52912;48.564;9.302;2023-04-24T12:45:26;4.53;;;1.25;;
66118;SDS011;52912;48.564;9.302;2023-04-24T12:47:51;3.08;;;1.40;;
66118;SDS011;52912;48.564;9.302;2023-04-24T12:50:17;2.10;;;1.20;;
66118;SDS011;52912;48.564;9.302;2023-04-24T12:52:43;1.42;;;1.10;;
66118;SDS011;52912;48.564;9.302;2023-04-24T12:55:11;2.10;;;1.27;;
66118;SDS011;52912;48.564;9.302;2023-04-24T12:57:37;1.17;;;0.90;;
66118;SDS011;52912;48.564;9.302;2023-04-24T13:00:04;1.95;;;1.20;;
66118;SDS011;52912;48.564;9.302;2023-04-24T13:02:32;1.27;;;1.17;;
66118;SDS011;52912;48.564;9.302;2023-04-24T13:04:58;2.22;;;1.92;;
66118;SDS011;52912;48.564;9.302;2023-04-24T13:07:24;2.85;;;1.52;;
66118;SDS011;52912;48.564;9.302;2023-04-24T13:09:50;3.72;;;1.70;;
66118;SDS011;52912;48.564;9.302;2023-04-24T13:12:17;6.32;;;1.58;;
66118;SDS011;52912;48.564;9.302;2023-04-24T13:14:43;1.92;;;1.45;;
66118;SDS011;52912;48.564;9.302;2023-04-24T13:17:09;3.38;;;1.10;;
66118;SDS011;52912;48.564;9.302;2023-04-24T13:19:37;2.38;;;1.40;;
66118;SDS011;52912;48.564;9.302;2023-04-24T13:22:04;2.40;;;1.55;;
66118;SDS011;52912;48.564;9.302;2023-04-24T13:24:29;2.13;;;1.70;;
66118;SDS011;52912;48.564;9.302;2023-04-24T13:26:55;3.33;;;1.77;;
66118;SDS011;52912;48.564;9.302;2023-04-24T13:29:22;4.75;;;1.80;;
66118;SDS011;52912;48.564;9.302;2023-04-24T13:31:49;4.45;;;2.30;;
66118;SDS011;52912;48.564;9.302;2023-04-24T13:34:15;3.63;;;2.00;;
66118;SDS011;52912;48.564;9.302;2023-04-24T13:36:41;7.45;;;1.90;;
66118;SDS011;52912;48.564;9.302;2023-04-24T13:39:07;5.05;;;1.98;;
66118;SDS011;52912;48.564;9.302;2023-04-24T13:41:32;2.72;;;1.50;;
66118;SDS011;52912;48.564;9.302;2023-04-24T13:43:58;2.55;;;1.55;;
66118;SDS011;52912;48.564;9.302;2023-04-24T13:46:25;3.70;;;1.77;;
66118;SDS011;52912;48.564;9.302;2023-04-24T13:48:51;4.78;;;1.65;;
66118;SDS011;52912;48.564;9.302;2023-04-24T13:51:16;4.43;;;1.73;;
66118;SDS011;52912;48.564;9.302;2023-04-24T13:53:42;4.70;;;2.08;;
66118;SDS011;52912;48.564;9.302;2023-04-24T13:56:07;3.88;;;1.88;;
66118;SDS011;52912;48.564;9.302;2023-04-24T13:58:32;2.47;;;1.60;;
66118;SDS011;52912;48.564;9.302;2023-04-24T14:00:58;2.60;;;1.50;;
66118;SDS011;52912;48.564;9.302;2023-04-24T14:03:25;3.60;;;2.00;;
66118;SDS011;52912;48.564;9.302;2023-04-24T14:05:50;2.03;;;1.40;;
66118;SDS011;52912;48.564;9.302;2023-04-24T14:08:16;3.83;;;1.85;;
66118;SDS011;52912;48.564;9.302;2023-04-24T14:10:42;2.20;;;1.40;;
66118;SDS011;52912;48.564;9.302;2023-04-24T14:13:07;2.65;;;1.58;;
66118;SDS011;52912;48.564;9.302;2023-04-24T14:15:34;3.05;;;2.15;;
66118;SDS011;52912;48.564;9.302;2023-04-24T14:18:00;2.30;;;1.50;;
66118;SDS011;52912;48.564;9.302;2023-04-24T14:20:27;2.97;;;1.90;;
66118;SDS011;52912;48.564;9.302;2023-04-24T14:22:52;1.65;;;1.30;;
66118;SDS011;52912;48.564;9.302;2023-04-24T14:25:18;1.83;;;1.45;;
66118;SDS011;52912;48.564;9.302;2023-04-24T14:27:43;2.28;;;1.50;;
66118;SDS011;52912;48.564;9.302;2023-04-24T14:30:09;1.90;;;1.50;;
66118;SDS011;52912;48.564;9.302;2023-04-24T14:32:35;2.08;;;1.38;;
66118;SDS011;52912;48.564;9.302;2023-04-24T14:35:01;4.05;;;1.73;;
66118;SDS011;52912;48.564;9.302;2023-04-24T14:37:28;1.52;;;1.40;;
66118;SDS011;52912;48.564;9.302;2023-04-24T14:39:53;4.00;;;1.50;;
66118;SDS011;52912;48.564;9.302;2023-04-24T14:42:18;4.38;;;1.70;;
66118;SDS011;52912;48.564;9.302;2023-04-24T14:44:44;2.85;;;1.80;;
66118;SDS011;52912;48.564;9.302;2023-04-24T14:47:09;3.33;;;1.48;;
66118;SDS011;52912;48.564;9.302;2023-04-24T14:49:35;7.20;;;2.00;;